createdAt,value
2023-03-04T09:50:22.295Z,10.73
2023-03-04T09:55:21.286Z,11.07
2023-03-04T10:00:20.353Z,12.73
2023-03-04T10:05:21.005Z,8.70
2023-03-04T10:10:20.704Z,15.27
2023-03-04T10:15:26.328Z,11.10
2023-03-04T10:20:23.924Z,15.20
2023-03-04T10:25:22.200Z,9.70
2023-03-04T10:30:24.954Z,9.20
2023-03-04T10:35:27.870Z,11.13
2023-03-04T10:40:26.773Z,14.97
2023-03-04T10:45:26.515Z,11.07
2023-03-04T10:50:24.604Z,8.87
2023-03-04T10:55:21.889Z,7.93
2023-03-04T11:00:32.092Z,7.43
2023-03-04T11:05:27.210Z,9.80
2023-03-04T11:10:23.058Z,12.10
2023-03-04T11:15:27.691Z,11.73
2023-03-04T11:20:30.261Z,8.90
2023-03-04T11:25:28.662Z,12.13
2023-03-04T11:30:30.526Z,8.73
2023-03-04T11:35:28.753Z,11.93
2023-03-04T11:40:32.330Z,6.03
2023-03-04T11:45:34.077Z,9.30
2023-03-04T11:50:34.529Z,10.77
2023-03-04T11:55:35.768Z,10.95
2023-03-04T12:00:50.584Z,7.75
2023-03-04T12:05:57.021Z,11.43
2023-03-04T12:10:57.606Z,8.90
2023-03-04T12:16:01.366Z,12.98
2023-03-04T12:21:23.114Z,11.00
2023-03-04T12:26:31.359Z,7.80
2023-03-04T12:31:37.275Z,8.07
2023-03-04T12:36:40.032Z,10.98
2023-03-04T12:41:45.331Z,12.38
2023-03-04T12:46:47.739Z,10.45
2023-03-04T12:51:48.499Z,8.05
2023-03-04T12:56:49.278Z,8.60
2023-03-04T13:01:51.377Z,7.80
2023-03-04T13:06:50.338Z,9.30
2023-03-04T13:11:53.832Z,7.70
2023-03-04T13:16:50.372Z,11.35
2023-03-04T13:21:50.673Z,12.48
2023-03-04T13:26:44.239Z,6.95
2023-03-04T13:37:00.569Z,13.65
2023-03-04T13:41:56.757Z,13.23
2023-03-04T13:46:50.234Z,7.82
2023-03-04T13:51:46.547Z,8.88
2023-03-04T13:56:42.475Z,14.00
2023-03-04T14:01:37.766Z,11.50
2023-03-04T14:06:32.765Z,10.23
2023-03-04T14:11:31.704Z,11.55
2023-03-04T14:16:30.166Z,7.47
2023-03-04T14:21:23.726Z,9.00
2023-03-04T14:26:20.112Z,11.75
2023-03-04T14:31:19.492Z,10.00
2023-03-04T14:36:19.648Z,8.32
2023-03-04T14:41:19.312Z,12.07
2023-03-04T14:46:16.992Z,9.13
2023-03-04T14:51:38.058Z,10.10
2023-03-04T14:56:34.723Z,7.93
2023-03-04T15:01:34.869Z,11.88
2023-03-04T15:06:30.842Z,6.93
2023-03-04T15:11:28.755Z,9.32
2023-03-04T15:16:25.452Z,14.77
2023-03-04T15:21:36.896Z,12.00
2023-03-04T15:26:33.445Z,12.50
2023-03-04T15:31:27.467Z,7.45
2023-03-04T15:36:23.462Z,8.27
2023-03-04T15:41:20.280Z,6.53
2023-03-04T15:46:18.148Z,9.20
2023-03-04T15:51:16.003Z,8.82
2023-03-04T15:56:13.627Z,9.25
2023-03-04T16:01:07.570Z,6.18
2023-03-04T16:06:02.606Z,9.63
2023-03-04T16:10:56.241Z,9.27
2023-03-04T16:15:50.098Z,7.45
2023-03-04T16:20:47.311Z,6.43
2023-03-04T16:25:45.214Z,13.13
2023-03-04T16:30:39.359Z,15.00
2023-03-04T16:35:35.879Z,17.08
2023-03-04T16:40:31.592Z,19.20
2023-03-04T16:45:30.352Z,20.80
2023-03-04T16:50:28.556Z,17.00
2023-03-04T16:55:24.476Z,20.50
2023-03-04T17:00:20.023Z,16.60
2023-03-04T17:05:19.779Z,17.20
2023-03-04T17:10:14.319Z,16.80
2023-03-04T17:15:09.144Z,27.23
2023-03-04T17:20:06.322Z,15.30
2023-03-04T17:25:02.847Z,17.23
2023-03-04T17:29:56.330Z,18.17
2023-03-04T17:34:49.834Z,19.33
2023-03-04T17:39:43.653Z,17.67
2023-03-04T17:44:38.592Z,16.00
2023-03-04T17:49:34.234Z,12.47
2023-03-04T17:54:28.396Z,15.63
2023-03-04T17:59:22.140Z,11.87
2023-03-04T18:04:17.809Z,19.10
2023-03-04T18:09:11.350Z,15.90
2023-03-04T18:14:05.409Z,19.50
2023-03-04T18:19:01.333Z,17.03
2023-03-04T18:23:56.606Z,20.73
2023-03-04T18:28:50.192Z,21.07
2023-03-04T18:33:44.329Z,20.37
2023-03-04T18:38:37.893Z,18.37
2023-03-04T18:43:33.881Z,19.27
2023-03-04T18:48:27.583Z,21.57
2023-03-04T18:53:21.551Z,28.03
2023-03-04T18:58:14.985Z,27.10
2023-03-04T19:08:02.805Z,28.10
